createdAt,value
2023-02-13T00:05:11.372Z,21.6
2023-02-13T00:10:16.322Z,21.6
2023-02-13T00:15:38.940Z,21.8
2023-02-13T00:21:16.553Z,20.6
2023-02-13T00:26:53.569Z,21.3
2023-02-13T00:32:46.114Z,22
2023-02-13T00:38:23.582Z,21.4
2023-02-13T00:43:44.910Z,21.9
2023-02-13T00:49:23.224Z,21.6
2023-02-13T00:54:45.767Z,21.6
2023-02-13T01:00:21.493Z,21.9
2023-02-13T01:05:13.971Z,21.4
2023-02-13T01:10:20.845Z,21.8
2023-02-13T01:15:57.153Z,21.8
2023-02-13T01:21:34.470Z,21.6
2023-02-13T01:27:11.366Z,22
2023-02-13T01:32:49.408Z,21.4
2023-02-13T01:38:27.944Z,21.9
2023-02-13T01:44:05.890Z,21.9
2023-02-13T01:49:44.965Z,21.6
2023-02-13T01:55:21.813Z,22.1
2023-02-13T02:00:43.598Z,20.9
2023-02-13T02:11:43.316Z,21.9
2023-02-13T02:17:20.572Z,21.7
2023-02-13T02:22:42.356Z,21.7
2023-02-13T02:28:20.106Z,21.8
2023-02-13T02:33:57.588Z,21.6
2023-02-13T02:39:34.269Z,22.1
2023-02-13T02:45:12.977Z,21.6
2023-02-13T02:50:51.031Z,21.9
2023-02-13T02:56:27.558Z,21.8
2023-02-13T03:02:04.961Z,21.6
2023-02-13T03:07:42.414Z,22
2023-02-13T03:13:20.285Z,21.6
2023-02-13T03:18:58.404Z,22.1
2023-02-13T03:24:35.242Z,21.7
2023-02-13T03:30:12.364Z,21.8
2023-02-13T03:35:50.689Z,22
2023-02-13T03:41:27.172Z,21.6
2023-02-13T03:47:04.620Z,21.8
2023-02-13T03:52:42.251Z,20.6
2023-02-13T03:58:19.174Z,21.3
2023-02-13T04:03:56.200Z,22.1
2023-02-13T04:09:33.898Z,21.8
2023-02-13T04:14:41.300Z,21.7
2023-02-13T04:20:03.001Z,22.2
2023-02-13T04:25:40.261Z,21.6
2023-02-13T04:31:18.919Z,21.9
2023-02-13T04:36:57.389Z,21.9
2023-02-13T04:42:34.570Z,21.6
2023-02-13T04:48:12.942Z,22.1
2023-02-13T04:53:49.106Z,21.6
2023-02-13T04:59:10.756Z,21.8
2023-02-13T05:04:33.249Z,22.1
2023-02-13T05:10:12.380Z,21.4
2023-02-13T05:15:49.789Z,21.9
2023-02-13T05:21:12.148Z,22.1
2023-02-13T05:26:34.066Z,21.6
2023-02-13T05:31:57.617Z,22.1
2023-02-13T05:37:35.636Z,20.8
2023-02-13T05:43:12.853Z,20.6
2023-02-13T05:48:52.113Z,21.6
2023-02-13T05:54:30.023Z,22.1
2023-02-13T06:00:08.085Z,21.3
2023-02-13T06:05:45.914Z,21.8
2023-02-13T06:11:07.466Z,21.8
2023-02-13T06:16:45.982Z,21.4
2023-02-13T06:22:24.055Z,21.9
2023-02-13T06:28:01.426Z,21.3
2023-02-13T06:33:39.894Z,21.1
2023-02-13T06:39:19.385Z,22.1
2023-02-13T06:44:41.146Z,21.3
2023-02-13T06:50:19.727Z,21.4
2023-02-13T06:55:53.977Z,21.7
2023-02-13T07:01:18.029Z,21.2
2023-02-13T07:06:55.957Z,21.7
2023-02-13T07:12:32.919Z,21.4
2023-02-13T07:18:09.840Z,21.3
2023-02-13T07:23:47.222Z,21.3
2023-02-13T07:29:05.741Z,20.3
2023-02-13T07:35:00.781Z,21.3
2023-02-13T07:40:40.241Z,21.8
2023-02-13T07:45:46.692Z,21.3
2023-02-13T07:51:08.746Z,21.9
2023-02-13T07:56:31.245Z,21.3
2023-02-13T08:01:54.246Z,21.4
2023-02-13T08:07:00.183Z,21.7
2023-02-13T08:12:38.423Z,21.2
2023-02-13T08:18:18.885Z,21.8
2023-02-13T08:23:55.413Z,21.4
2023-02-13T08:29:33.829Z,21.7
2023-02-13T08:34:50.859Z,21.9
2023-02-13T08:40:28.375Z,21.3
2023-02-13T08:46:06.949Z,21.7
2023-02-13T08:57:08.182Z,21.2
2023-02-13T09:02:30.810Z,21.8
2023-02-13T09:08:09.134Z,21.3
2023-02-13T09:13:47.270Z,21.6
2023-02-13T09:19:24.334Z,20.5
2023-02-13T09:25:02.617Z,21.4
2023-02-13T09:30:24.899Z,21.9
2023-02-13T09:36:03.517Z,21.4
2023-02-13T09:41:10.324Z,22
2023-02-13T09:46:48.517Z,21.4
2023-02-13T09:52:28.283Z,21.8
2023-02-13T09:57:50.832Z,21.7
2023-02-13T10:03:28.528Z,21.4
2023-02-13T10:09:06.474Z,21.9
2023-02-13T10:14:31.745Z,21.4
2023-02-13T10:19:55.701Z,21.9
2023-02-13T10:25:32.823Z,21.5
2023-02-13T10:30:39.144Z,21.9
2023-02-13T10:36:18.531Z,21.8
2023-02-13T10:41:56.284Z,21.6
2023-02-13T10:47:34.871Z,22
2023-02-13T10:53:13.219Z,21.4
2023-02-13T10:59:05.486Z,22
2023-02-13T11:04:43.664Z,21.4
2023-02-13T11:10:04.616Z,22.1
2023-02-13T11:15:42.211Z,21.6
2023-02-13T11:21:22.164Z,21.7
2023-02-13T11:26:42.626Z,21.4
2023-02-13T11:32:05.556Z,21.4
2023-02-13T11:37:43.154Z,22
2023-02-13T11:43:20.316Z,21.3
2023-02-13T11:48:58.435Z,21.7
2023-02-13T11:54:34.741Z,21.2
2023-02-13T12:00:10.330Z,21.7
2023-02-13T12:05:18.005Z,21.3
2023-02-13T12:10:39.846Z,21.3
2023-02-13T12:16:17.242Z,21.6
2023-02-13T12:27:10.002Z,21.6
2023-02-13T12:32:46.752Z,21.2
2023-02-13T12:38:09.343Z,21.6
2023-02-13T12:43:48.757Z,21.4
2023-02-13T12:49:25.530Z,21.9
2023-02-13T12:54:46.737Z,22
2023-02-13T13:00:08.571Z,21.9
2023-02-13T13:05:50.614Z,22.5
2023-02-13T13:11:34.391Z,21.7
2023-02-13T13:17:11.554Z,22.7
2023-02-13T13:22:32.546Z,22.1
2023-02-13T13:28:09.475Z,22.2
2023-02-13T13:33:17.556Z,22.3
2023-02-13T13:38:55.246Z,21.7
2023-02-13T13:44:16.573Z,22.4
2023-02-13T13:49:22.971Z,21.5
2023-02-13T14:00:07.671Z,21.4
2023-02-13T14:05:31.164Z,21.3
2023-02-13T14:11:10.092Z,22.1
2023-02-13T14:16:50.150Z,21.5
2023-02-13T14:22:12.449Z,21.3
2023-02-13T14:27:56.642Z,21.9
2023-02-13T14:33:34.626Z,21.2
2023-02-13T14:38:59.516Z,21.5
2023-02-13T14:44:21.701Z,21.4
2023-02-13T14:49:59.234Z,21.3
2023-02-13T14:55:36.139Z,21.8
2023-02-13T15:01:14.262Z,21.3
2023-02-13T15:06:51.874Z,21.9
2023-02-13T15:12:14.374Z,21.6
2023-02-13T15:17:52.521Z,21.4
2023-02-13T15:23:30.574Z,22
2023-02-13T15:28:37.553Z,21.1
2023-02-13T15:34:37.549Z,21.9
2023-02-13T15:40:17.019Z,21.3
2023-02-13T15:45:39.755Z,21.1
2023-02-13T15:51:17.760Z,20.8
2023-02-13T15:56:56.560Z,20.5
2023-02-13T16:02:35.371Z,20.1
2023-02-13T16:08:25.472Z,19.9
2023-02-13T16:14:02.722Z,19.7
2023-02-13T16:19:40.695Z,19.4
2023-02-13T16:25:04.055Z,19.3
2023-02-13T16:30:41.992Z,19.4
2023-02-13T16:36:19.561Z,19.4
2023-02-13T16:41:56.963Z,19.1
2023-02-13T16:47:04.633Z,21.2
2023-02-13T16:52:42.243Z,22.8
2023-02-13T16:58:20.647Z,22.7
2023-02-13T17:03:56.877Z,22.6
2023-02-13T17:09:19.355Z,23.3
2023-02-13T17:14:55.914Z,24.4
2023-02-13T17:20:35.205Z,24.5
2023-02-13T17:25:56.700Z,24.9
2023-02-13T17:31:37.493Z,26.5
2023-02-13T17:37:14.953Z,27.8
2023-02-13T17:42:51.919Z,29.1
2023-02-13T17:48:31.023Z,29.4
2023-02-13T17:54:19.381Z,29.9
2023-02-13T17:59:57.478Z,29.8
2023-02-13T18:05:35.792Z,29
2023-02-13T18:10:42.449Z,28.8
2023-02-13T18:16:21.461Z,28.4
2023-02-13T18:21:58.694Z,27.4
2023-02-13T18:27:20.349Z,27.4
2023-02-13T18:33:01.039Z,27.3
2023-02-13T18:38:23.148Z,27.4
2023-02-13T18:43:45.471Z,27.3
2023-02-13T18:49:33.581Z,26.7
2023-02-13T18:54:56.572Z,27.3
2023-02-13T19:00:33.193Z,27.6
2023-02-13T19:06:10.637Z,27.7
2023-02-13T19:11:48.424Z,27.2
2023-02-13T19:17:25.764Z,27.3
2023-02-13T19:22:32.505Z,27.4
2023-02-13T19:28:10.205Z,27
2023-02-13T19:33:16.958Z,26.4
2023-02-13T19:39:06.371Z,27.1
2023-02-13T19:44:44.190Z,26.3
2023-02-13T19:49:52.442Z,26.7
2023-02-13T19:55:15.703Z,27.3
2023-02-13T20:00:54.645Z,27.1
2023-02-13T20:06:33.982Z,27
2023-02-13T20:11:40.713Z,27.1
2023-02-13T20:17:03.282Z,26.7
2023-02-13T20:22:25.770Z,26.6
2023-02-13T20:28:03.997Z,27.5
2023-02-13T20:33:18.584Z,26
2023-02-13T20:38:42.589Z,26.2
2023-02-13T20:43:51.002Z,26.8
2023-02-13T20:49:30.260Z,26.6
2023-02-13T20:54:37.221Z,26.4
2023-02-13T20:59:30.045Z,25.9
2023-02-13T21:04:52.932Z,25.3
2023-02-13T21:10:17.944Z,24.6
2023-02-13T21:15:55.568Z,24
2023-02-13T21:21:02.659Z,23.6
2023-02-13T21:26:40.117Z,22.8
2023-02-13T21:32:02.547Z,22.3
2023-02-13T21:37:40.268Z,21.8
2023-02-13T21:43:18.485Z,21.4
2023-02-13T21:48:56.243Z,21.3
2023-02-13T21:54:33.287Z,22.5
2023-02-13T21:59:58.428Z,22
2023-02-13T22:05:42.640Z,21.4
2023-02-13T22:11:19.643Z,20.9
2023-02-13T22:16:57.169Z,21.6
2023-02-13T22:22:34.585Z,22.2
2023-02-13T22:28:12.032Z,21.4
2023-02-13T22:34:03.217Z,20.9
2023-02-13T22:39:40.387Z,20.9
2023-02-13T22:45:17.276Z,22.1
2023-02-13T22:50:54.441Z,21.7
2023-02-13T22:56:32.044Z,21.5
2023-02-13T23:01:23.131Z,22.4
2023-02-13T23:07:01.763Z,22.4
2023-02-13T23:12:39.365Z,21.8
2023-02-13T23:18:02.685Z,22
2023-02-13T23:23:24.879Z,22.5
2023-02-13T23:28:46.735Z,21.8
2023-02-13T23:33:54.482Z,21.6
2023-02-13T23:39:00.969Z,22.4
2023-02-13T23:44:24.127Z,22.1
2023-02-13T23:49:46.200Z,21.4
2023-02-13T23:55:23.488Z,22.1
